»·PEaware :: SKY420 KLVM-6S0

SKY420 :: KLVM-6S0

FLIGHT INFORMATION

Flight Status: Arrived
Operator:
Sky High Charters
More flights by this operator :: More flights under this callsign
Pilot: Daniel P. (20187)
Aircraft: BEECH AIRCRAFT SUPER KING AIR 350
(B350)
More flights by this aircraft type
Origin: KLVM Mission
United States
Destination: 6S0 Big Timber
United States
More flights between these airports :: More routes between these airports
Route: LVM2 LVM V2 SUBKY
File this flight plan on PilotEdge
Remarks: Scenario #7
Altitude:
(Current/Filed)
10,000ft
Speed:
(Current/Filed)
220kts
Departed: 17-Mar-20 12:53 PM
Arrived: 17-Mar-20 01:17 PM
Distance/Time
Traveled:
21nm/0:24
Distance/Time
To Go:
Arrived

Flight Plot

Page will automatically refresh every two minutes.

Flight plan parsing failed; only flown route is shown


Map Options




Map Legend


Flown Route
Filed Route
Departure Airport
Arrival Airport
Navaid (VOR, NDB)
Fix

Horizontal Profiles

Position Reports

Time Latitude Longitude Heading Altitude Ground
Speed
17-Mar-20 12:34 45.696819 -110.452580 228 4665ft 0kts
17-Mar-20 12:35 45.696819 -110.452580 228 4665ft 0kts
17-Mar-20 12:36 45.696819 -110.452580 228 4665ft 0kts
17-Mar-20 12:37 45.696819 -110.452580 228 4665ft 0kts
17-Mar-20 12:38 45.696819 -110.452580 228 4665ft 0kts
17-Mar-20 12:39 45.696819 -110.452580 228 4665ft 0kts
17-Mar-20 12:40 45.696819 -110.452580 228 4665ft 0kts
17-Mar-20 12:41 45.696819 -110.452580 228 4665ft 0kts
17-Mar-20 12:42 45.696819 -110.452580 228 4665ft 0kts
17-Mar-20 12:43 45.696819 -110.452580 228 4665ft 0kts
17-Mar-20 12:44 45.696819 -110.452580 228 4665ft 0kts
17-Mar-20 12:45 45.696819 -110.452580 228 4665ft 0kts
17-Mar-20 12:46 45.696819 -110.452580 229 4665ft 0kts
17-Mar-20 12:47 45.696819 -110.452580 228 4665ft 0kts
17-Mar-20 12:48 45.696579 -110.452501 82 4665ft 2kts
17-Mar-20 12:49 45.695549 -110.450666 55 4665ft 12kts
17-Mar-20 12:50 45.700151 -110.441348 53 4665ft 29kts
17-Mar-20 12:51 45.702809 -110.437563 95 4665ft 1kts
17-Mar-20 12:52 45.696939 -110.447701 234 4705ft 136kts
17-Mar-20 12:53 45.694223 -110.502726 279 7376ft 154kts
17-Mar-20 12:54 45.695656 -110.560714 316 9908ft 165kts
17-Mar-20 12:55 45.741486 -110.523884 83 9930ft 262kts
17-Mar-20 12:56 45.738608 -110.424571 94 9906ft 243kts
17-Mar-20 12:57 45.719059 -110.335852 112 9902ft 226kts
17-Mar-20 12:58 45.718609 -110.249327 86 9907ft 216kts
17-Mar-20 12:59 45.723102 -110.163019 86 9908ft 217kts
17-Mar-20 13:00 45.727561 -110.076204 86 9908ft 218kts
17-Mar-20 13:01 45.731949 -109.989407 86 9908ft 218kts
17-Mar-20 13:02 45.757817 -109.914055 53 9471ft 217kts
17-Mar-20 13:03 45.793675 -109.842999 53 8749ft 219kts
17-Mar-20 13:04 45.829687 -109.772787 53 7853ft 216kts
17-Mar-20 13:05 45.864501 -109.705094 52 6979ft 204kts
17-Mar-20 13:06 45.899856 -109.639414 52 6985ft 213kts
17-Mar-20 13:07 45.933841 -109.570945 77 6962ft 206kts
17-Mar-20 13:08 45.897852 -109.538891 219 6983ft 193kts
17-Mar-20 13:09 45.879624 -109.610410 254 6963ft 194kts
17-Mar-20 13:10 45.865010 -109.685322 254 6963ft 193kts
17-Mar-20 13:11 45.850948 -109.756405 253 6687ft 182kts
17-Mar-20 13:12 45.837347 -109.825204 253 6395ft 155kts
17-Mar-20 13:13 45.826831 -109.878008 253 5737ft 121kts
17-Mar-20 13:14 45.817589 -109.924488 253 5096ft 126kts
17-Mar-20 13:15 45.808677 -109.969237 254 4498ft 106kts
17-Mar-20 13:17 45.806910 -109.978178 74 4497ft 25kts
17-Mar-20 13:17 45.808206 -109.974432 72 4497ft 7kts
17-Mar-20 13:18 45.808592 -109.974039 72 4497ft 0kts
17-Mar-20 13:19 45.808592 -109.974039 72 4497ft 0kts
17-Mar-20 13:20 45.808592 -109.974039 72 4497ft 0kts
17-Mar-20 13:21 45.808592 -109.974039 72 4497ft 0kts
17-Mar-20 13:22 45.808592 -109.974039 72 4497ft 0kts
17-Mar-20 13:23 45.808592 -109.974039 72 4497ft 0kts
17-Mar-20 13:24 45.808592 -109.974039 72 4497ft 0kts
17-Mar-20 13:25 45.808592 -109.974039 72 4497ft 0kts
17-Mar-20 13:26 45.808592 -109.974039 72 4497ft 0kts
17-Mar-20 13:27 45.808592 -109.974039 72 4497ft 0kts
17-Mar-20 13:28 45.808592 -109.974039 72 4497ft 0kts
17-Mar-20 13:29 45.808592 -109.974039 72 4497ft 0kts

Navigation Log

Ident Type
Flight plan parsing failed, navigation log unavailable